createdAt,value
2024-05-09T00:00:42.745Z,73.62
2024-05-09T00:03:35.041Z,73.66
2024-05-09T00:06:26.908Z,73.85
2024-05-09T00:09:18.800Z,73.87
2024-05-09T00:12:11.104Z,74.12
2024-05-09T00:15:03.134Z,74.25
2024-05-09T00:17:55.106Z,74.52
2024-05-09T00:20:47.620Z,74.74
2024-05-09T00:23:39.854Z,74.83
2024-05-09T00:26:32.268Z,74.84
2024-05-09T00:29:28.059Z,74.94
2024-05-09T00:32:20.204Z,75.16
2024-05-09T00:35:12.395Z,75.26
2024-05-09T00:38:04.906Z,75.45
2024-05-09T00:40:57.463Z,75.61
2024-05-09T00:43:49.608Z,75.74
2024-05-09T00:46:41.847Z,75.80
2024-05-09T00:49:35.616Z,75.77
2024-05-09T00:52:28.678Z,75.90
2024-05-09T00:55:21.068Z,76.13
2024-05-09T00:58:16.951Z,76.19
2024-05-09T01:01:09.279Z,76.23
2024-05-09T01:04:02.626Z,76.28
2024-05-09T01:06:54.810Z,76.32
2024-05-09T01:09:46.793Z,76.35
2024-05-09T01:12:38.823Z,76.52
2024-05-09T01:15:30.801Z,76.64
2024-05-09T01:18:23.301Z,76.68
2024-05-09T01:21:15.268Z,76.65
2024-05-09T01:24:07.668Z,76.67
2024-05-09T01:26:59.515Z,76.66
2024-05-09T01:29:51.436Z,76.94
2024-05-09T01:32:43.632Z,76.82
2024-05-09T01:35:35.766Z,76.91
2024-05-09T01:38:27.955Z,76.98
2024-05-09T01:41:20.024Z,77.06
2024-05-09T01:44:12.222Z,77.17
2024-05-09T01:47:04.006Z,77.26
2024-05-09T01:49:56.958Z,77.20
2024-05-09T01:52:48.986Z,77.35
2024-05-09T01:55:41.736Z,77.47
2024-05-09T01:58:33.220Z,77.48
2024-05-09T02:01:27.160Z,77.52
2024-05-09T02:04:21.929Z,77.43
2024-05-09T02:07:18.343Z,77.29
2024-05-09T02:10:16.457Z,77.30
2024-05-09T02:13:13.151Z,77.29
2024-05-09T02:16:04.856Z,77.17
2024-05-09T02:18:56.360Z,77.05
2024-05-09T02:21:48.852Z,77.02
2024-05-09T02:24:40.493Z,77.27
2024-05-09T02:27:32.466Z,77.44
2024-05-09T02:30:31.095Z,77.68
2024-05-09T02:33:31.224Z,77.78
2024-05-09T02:36:23.471Z,78.05
2024-05-09T02:39:15.207Z,78.13
2024-05-09T02:42:07.169Z,78.15
2024-05-09T02:44:59.020Z,78.32
2024-05-09T02:47:51.053Z,78.27
2024-05-09T02:50:44.831Z,78.40
2024-05-09T02:53:37.017Z,78.79
2024-05-09T02:56:29.017Z,79.07
2024-05-09T02:59:21.706Z,79.22
2024-05-09T03:02:14.264Z,79.26
2024-05-09T03:05:06.899Z,79.29
2024-05-09T03:07:59.592Z,79.42
2024-05-09T03:10:51.532Z,79.47
2024-05-09T03:13:44.098Z,79.52
2024-05-09T03:16:39.963Z,79.60
2024-05-09T03:19:33.497Z,79.89
2024-05-09T03:22:27.929Z,79.94
2024-05-09T03:25:20.082Z,80.11
2024-05-09T03:28:12.301Z,80.11
2024-05-09T03:31:04.187Z,80.33
2024-05-09T03:33:56.227Z,80.60
2024-05-09T03:36:48.490Z,80.64
2024-05-09T03:39:40.424Z,80.74
2024-05-09T03:42:32.609Z,80.75
2024-05-09T03:45:25.404Z,80.86
2024-05-09T03:48:17.580Z,80.86
2024-05-09T03:51:09.829Z,80.94
2024-05-09T03:54:02.036Z,81.02
2024-05-09T03:56:54.295Z,81.06
2024-05-09T03:59:46.106Z,81.15
2024-05-09T04:02:39.956Z,81.10
2024-05-09T04:05:32.839Z,81.36
2024-05-09T04:08:25.236Z,81.52
2024-05-09T04:11:17.450Z,81.70
2024-05-09T04:14:09.472Z,81.78
2024-05-09T04:17:01.455Z,81.91
2024-05-09T04:19:53.300Z,82.23
2024-05-09T04:22:46.252Z,82.38
2024-05-09T04:25:45.156Z,82.49
2024-05-09T04:28:38.087Z,82.67
2024-05-09T04:31:23.851Z,82.71
2024-05-09T04:34:15.888Z,82.98
2024-05-09T04:37:08.122Z,83.00
2024-05-09T04:40:00.834Z,83.25
2024-05-09T04:42:52.802Z,83.36
2024-05-09T04:45:44.752Z,83.43
2024-05-09T04:48:36.689Z,83.34
2024-05-09T04:51:28.535Z,83.37
2024-05-09T04:54:30.213Z,83.66
2024-05-09T04:57:30.059Z,83.71
2024-05-09T05:00:31.691Z,83.81
2024-05-09T05:03:28.088Z,83.88
2024-05-09T05:06:20.248Z,84.00
2024-05-09T05:09:12.286Z,84.03
2024-05-09T05:12:24.192Z,84.06
2024-05-09T05:15:16.531Z,84.17
2024-05-09T05:18:09.416Z,84.21
2024-05-09T05:21:01.812Z,84.14
2024-05-09T05:23:53.950Z,84.05
2024-05-09T05:26:46.267Z,84.07
2024-05-09T05:29:38.156Z,84.06
2024-05-09T05:32:31.247Z,84.05
2024-05-09T05:35:23.622Z,84.10
2024-05-09T05:38:15.970Z,83.95
2024-05-09T05:41:08.036Z,83.75
2024-05-09T05:44:01.055Z,83.31
2024-05-09T05:46:53.539Z,83.15
2024-05-09T05:49:45.499Z,82.97
2024-05-09T05:52:37.604Z,82.85
2024-05-09T05:55:29.385Z,82.83
2024-05-09T05:58:22.441Z,82.84
2024-05-09T06:01:14.209Z,82.62
2024-05-09T06:04:06.221Z,82.44
2024-05-09T06:06:58.126Z,82.33
2024-05-09T06:09:50.572Z,82.35
2024-05-09T06:12:43.391Z,82.42
2024-05-09T06:15:35.623Z,81.85
2024-05-09T06:18:28.151Z,81.61
2024-05-09T06:21:20.570Z,81.38
2024-05-09T06:24:12.938Z,81.11
2024-05-09T06:27:06.025Z,81.13
2024-05-09T06:29:58.539Z,80.66
2024-05-09T06:32:51.310Z,80.50
2024-05-09T06:35:44.353Z,80.34
2024-05-09T06:38:37.811Z,80.14
2024-05-09T06:41:29.967Z,79.70
2024-05-09T06:44:24.850Z,79.15
2024-05-09T06:47:16.964Z,78.51
2024-05-09T06:50:19.603Z,78.20
2024-05-09T06:53:16.755Z,77.88
2024-05-09T06:56:09.867Z,77.67
2024-05-09T06:59:02.161Z,77.25
2024-05-09T07:01:54.660Z,77.08
2024-05-09T07:04:47.737Z,76.78
2024-05-09T07:07:39.887Z,76.68
2024-05-09T07:10:35.290Z,76.36
2024-05-09T07:13:28.474Z,76.05
2024-05-09T07:16:20.287Z,75.75
2024-05-09T07:19:12.758Z,74.93
2024-05-09T07:22:05.749Z,74.43
2024-05-09T07:24:57.838Z,73.94
2024-05-09T07:27:50.319Z,73.07
2024-05-09T07:30:43.111Z,72.47
2024-05-09T07:33:37.412Z,71.44
2024-05-09T07:36:29.614Z,70.98
2024-05-09T07:39:22.818Z,70.16
2024-05-09T07:42:14.482Z,68.98
2024-05-09T07:45:24.242Z,67.96
2024-05-09T07:54:14.189Z,64.89
2024-05-09T07:57:06.113Z,63.56
2024-05-09T07:59:57.809Z,62.10
2024-05-09T08:02:49.622Z,60.47
2024-05-09T08:05:42.261Z,59.29
2024-05-09T08:08:34.202Z,58.54
2024-05-09T08:11:25.997Z,57.41
2024-05-09T08:14:18.919Z,56.66
2024-05-09T08:17:12.340Z,55.46
2024-05-09T08:20:05.568Z,53.78
2024-05-09T08:22:58.802Z,52.46
2024-05-09T08:25:50.680Z,50.57
2024-05-09T08:28:43.498Z,50.11
2024-05-09T08:31:39.567Z,48.92
2024-05-09T08:34:31.566Z,47.53
2024-05-09T08:37:27.659Z,46.91
2024-05-09T08:40:30.776Z,46.18
2024-05-09T08:43:27.585Z,45.10
2024-05-09T08:46:19.715Z,44.55
2024-05-09T08:49:12.315Z,43.86
2024-05-09T08:52:09.694Z,43.16
2024-05-09T08:55:02.454Z,42.71
2024-05-09T08:57:55.394Z,42.15
2024-05-09T09:00:50.085Z,41.59
2024-05-09T09:03:44.597Z,41.43
2024-05-09T09:06:38.415Z,41.18
2024-05-09T09:09:33.236Z,40.58
2024-05-09T09:12:25.141Z,40.08
2024-05-09T09:15:17.187Z,40.38
2024-05-09T09:18:12.224Z,39.69
2024-05-09T09:21:04.686Z,39.44
2024-05-09T09:23:57.084Z,38.83
2024-05-09T09:26:52.092Z,37.96
2024-05-09T09:29:44.802Z,37.69
2024-05-09T09:32:36.673Z,36.91
2024-05-09T09:35:29.231Z,35.67
2024-05-09T09:38:24.644Z,35.81
2024-05-09T09:41:22.748Z,35.97
2024-05-09T09:44:14.583Z,36.39
2024-05-09T09:47:07.117Z,36.61
2024-05-09T09:49:59.876Z,36.29
2024-05-09T09:52:53.356Z,36.38
2024-05-09T09:55:45.931Z,35.74
2024-05-09T09:58:39.505Z,35.30
2024-05-09T10:01:31.133Z,35.16
2024-05-09T10:04:24.587Z,35.38
2024-05-09T10:07:19.796Z,35.27
2024-05-09T10:10:16.135Z,35.19
2024-05-09T10:13:11.818Z,35.18
2024-05-09T10:16:11.398Z,34.36
2024-05-09T10:19:03.783Z,33.54
2024-05-09T10:22:03.247Z,33.19
2024-05-09T10:25:05.115Z,32.61
2024-05-09T10:27:58.607Z,31.08
2024-05-09T10:31:02.680Z,30.78
2024-05-09T10:33:55.732Z,30.01
2024-05-09T10:36:47.293Z,29.42
2024-05-09T10:39:39.838Z,29.40
2024-05-09T10:42:32.261Z,29.07
2024-05-09T10:45:25.846Z,28.24
2024-05-09T10:48:18.094Z,27.95
2024-05-09T10:51:11.318Z,27.93
2024-05-09T10:54:03.058Z,27.74
2024-05-09T10:56:59.738Z,27.43
2024-05-09T10:59:53.215Z,27.44
2024-05-09T11:02:45.485Z,26.64
2024-05-09T11:05:39.023Z,26.33
2024-05-09T11:08:32.640Z,25.71
2024-05-09T11:11:24.321Z,25.90
2024-05-09T11:14:17.265Z,26.12
2024-05-09T11:17:09.770Z,25.56
2024-05-09T11:20:06.240Z,25.29
2024-05-09T11:23:09.637Z,25.32
2024-05-09T11:26:01.938Z,25.25
2024-05-09T11:28:54.366Z,25.41
2024-05-09T11:31:52.545Z,26.02
2024-05-09T11:34:44.932Z,25.18
2024-05-09T11:37:40.778Z,24.71
2024-05-09T11:40:34.541Z,24.62
2024-05-09T11:43:27.057Z,25.26
2024-05-09T11:46:19.279Z,25.62
2024-05-09T11:49:12.051Z,25.70
2024-05-09T11:52:04.245Z,25.60
2024-05-09T11:54:57.213Z,25.69
2024-05-09T11:57:49.674Z,24.88
2024-05-09T12:00:41.709Z,25.03
2024-05-09T12:03:35.697Z,25.61
2024-05-09T12:06:27.524Z,24.95
2024-05-09T12:09:19.560Z,24.93
2024-05-09T12:12:11.419Z,24.72
2024-05-09T12:15:03.211Z,24.92
2024-05-09T12:17:57.335Z,25.31
2024-05-09T12:20:50.913Z,25.57
2024-05-09T12:23:42.837Z,25.60
2024-05-09T12:26:34.504Z,25.53
2024-05-09T12:29:26.399Z,26.17
2024-05-09T12:32:18.338Z,26.41
2024-05-09T12:35:10.200Z,26.30
2024-05-09T12:38:02.163Z,26.35
2024-05-09T12:40:54.310Z,25.80
2024-05-09T12:43:46.438Z,25.50
2024-05-09T12:46:39.004Z,25.85
2024-05-09T12:49:30.997Z,26.44
2024-05-09T12:52:22.972Z,27.17
2024-05-09T12:55:14.986Z,27.61
2024-05-09T12:58:09.040Z,27.57
2024-05-09T13:01:00.675Z,27.44
2024-05-09T13:03:53.356Z,27.34
2024-05-09T13:06:45.878Z,27.37
2024-05-09T13:09:38.315Z,27.33
2024-05-09T13:12:31.788Z,27.11
2024-05-09T13:15:23.647Z,26.85
2024-05-09T13:18:18.041Z,26.78
2024-05-09T13:21:10.195Z,26.37
2024-05-09T13:24:02.508Z,26.50
2024-05-09T13:26:55.687Z,26.65
2024-05-09T13:29:47.420Z,26.43
2024-05-09T13:32:39.606Z,26.62
2024-05-09T13:35:32.025Z,26.19
2024-05-09T13:38:24.389Z,26.58
2024-05-09T13:41:16.781Z,27.28
2024-05-09T13:44:09.637Z,26.93
2024-05-09T13:47:01.927Z,26.81
2024-05-09T13:49:54.014Z,26.74
2024-05-09T13:52:46.017Z,26.81
2024-05-09T13:55:40.407Z,27.10
2024-05-09T13:58:32.669Z,28.08
2024-05-09T14:01:26.268Z,28.59
2024-05-09T14:04:18.593Z,28.23
2024-05-09T14:07:10.942Z,28.71
2024-05-09T14:10:03.977Z,29.09
2024-05-09T14:12:56.220Z,28.79
2024-05-09T14:15:48.256Z,28.88
2024-05-09T14:18:40.918Z,29.22
2024-05-09T14:21:33.342Z,29.71
2024-05-09T14:24:25.405Z,29.83
2024-05-09T14:27:17.387Z,30.15
2024-05-09T14:30:18.229Z,30.37
2024-05-09T14:33:23.605Z,30.92
2024-05-09T14:36:15.609Z,31.40
2024-05-09T14:39:07.821Z,31.45
2024-05-09T14:41:59.670Z,31.30
2024-05-09T14:44:51.579Z,31.02
2024-05-09T14:47:43.582Z,31.24
2024-05-09T14:50:38.839Z,32.04
2024-05-09T14:53:32.518Z,32.02
2024-05-09T14:56:24.509Z,32.33
2024-05-09T14:59:16.481Z,32.94
2024-05-09T15:02:08.637Z,33.62
2024-05-09T15:05:01.116Z,34.04
2024-05-09T15:07:53.523Z,34.84
2024-05-09T15:11:02.075Z,35.63
2024-05-09T15:13:55.218Z,35.74
2024-05-09T15:16:49.536Z,36.38
2024-05-09T15:19:41.614Z,36.94
2024-05-09T15:22:34.319Z,37.22
2024-05-09T15:25:27.953Z,37.38
2024-05-09T15:28:20.438Z,37.47
2024-05-09T15:31:12.574Z,37.89
2024-05-09T15:34:05.980Z,38.38
2024-05-09T15:36:59.158Z,39.12
2024-05-09T15:39:51.571Z,39.79
2024-05-09T15:42:43.614Z,40.47
2024-05-09T15:45:36.239Z,41.24
2024-05-09T15:48:28.496Z,41.77
2024-05-09T15:51:22.703Z,42.61
2024-05-09T15:54:17.555Z,43.40
2024-05-09T15:57:15.329Z,43.43
2024-05-09T16:00:18.068Z,43.42
2024-05-09T16:03:16.571Z,43.80
2024-05-09T16:06:08.728Z,44.09
2024-05-09T16:09:01.094Z,44.67
2024-05-09T16:11:53.218Z,44.80
2024-05-09T16:14:46.535Z,44.90
2024-05-09T16:17:38.579Z,45.09
2024-05-09T16:20:38.830Z,45.17
2024-05-09T16:23:34.553Z,45.25
2024-05-09T16:26:26.636Z,45.37
2024-05-09T16:29:18.806Z,45.69
2024-05-09T16:32:11.364Z,46.12
2024-05-09T16:35:03.531Z,46.48
2024-05-09T16:37:57.266Z,46.48
2024-05-09T16:40:49.832Z,47.14
2024-05-09T16:43:42.277Z,47.82
2024-05-09T16:46:35.429Z,48.16
2024-05-09T16:49:27.796Z,48.43
2024-05-09T16:52:20.113Z,48.68
2024-05-09T16:55:12.310Z,48.90
2024-05-09T16:58:05.107Z,49.39
2024-05-09T17:01:03.387Z,49.81
2024-05-09T17:03:55.638Z,50.15
2024-05-09T17:06:51.768Z,50.17
2024-05-09T17:09:44.022Z,50.66
2024-05-09T17:12:37.409Z,50.97
2024-05-09T17:15:29.341Z,51.26
2024-05-09T17:18:21.644Z,51.44
2024-05-09T17:21:17.849Z,51.62
2024-05-09T17:24:12.138Z,51.88
2024-05-09T17:27:06.363Z,52.34
2024-05-09T17:30:00.268Z,52.51
2024-05-09T17:32:52.383Z,52.84
2024-05-09T17:35:46.058Z,53.08
2024-05-09T17:38:38.993Z,53.27
2024-05-09T17:41:31.118Z,53.44
2024-05-09T17:44:23.218Z,53.41
2024-05-09T17:47:15.201Z,53.59
2024-05-09T17:50:14.640Z,53.76
2024-05-09T17:53:11.771Z,54.04
2024-05-09T17:56:04.758Z,53.98
2024-05-09T17:58:56.944Z,54.20
2024-05-09T18:01:49.302Z,54.16
2024-05-09T18:04:41.577Z,54.64
2024-05-09T18:07:33.807Z,55.08
2024-05-09T18:10:34.848Z,55.19
2024-05-09T18:13:31.259Z,55.65
2024-05-09T18:16:26.461Z,55.94
2024-05-09T18:19:19.269Z,55.92
2024-05-09T18:22:11.521Z,56.09
2024-05-09T18:25:03.808Z,56.20
2024-05-09T18:27:57.487Z,56.42
2024-05-09T18:30:49.835Z,56.53
2024-05-09T18:33:42.056Z,56.64
2024-05-09T18:36:34.799Z,56.89
2024-05-09T18:39:26.859Z,57.30
2024-05-09T18:42:18.882Z,57.38
2024-05-09T18:45:10.710Z,57.55
2024-05-09T18:48:03.152Z,57.94
2024-05-09T18:50:55.296Z,58.21
2024-05-09T18:53:48.068Z,58.20
2024-05-09T18:56:42.058Z,58.24
2024-05-09T18:59:34.292Z,58.49
2024-05-09T19:02:26.441Z,58.67
2024-05-09T19:05:19.366Z,58.74
2024-05-09T19:08:15.087Z,58.75
2024-05-09T19:11:08.902Z,58.96
2024-05-09T19:14:04.310Z,59.19
2024-05-09T19:16:59.124Z,59.43
2024-05-09T19:19:52.578Z,59.49
2024-05-09T19:22:45.170Z,59.75
2024-05-09T19:25:37.616Z,59.94
2024-05-09T19:28:30.276Z,60.20
2024-05-09T19:31:22.713Z,60.55
2024-05-09T19:34:16.680Z,60.74
2024-05-09T19:37:09.005Z,61.02
2024-05-09T19:40:02.144Z,61.27
2024-05-09T19:42:56.983Z,61.48
2024-05-09T19:45:49.052Z,61.72
2024-05-09T19:48:41.479Z,62.04
2024-05-09T19:51:34.559Z,62.28
2024-05-09T19:54:26.969Z,62.55
2024-05-09T19:57:22.144Z,62.57
2024-05-09T20:00:21.519Z,62.89
2024-05-09T20:03:14.699Z,63.03
2024-05-09T20:06:12.829Z,63.09
2024-05-09T20:09:07.105Z,63.30
2024-05-09T20:11:59.104Z,63.53
2024-05-09T20:14:50.983Z,63.71
2024-05-09T20:17:42.917Z,63.90
2024-05-09T20:20:39.964Z,64.20
2024-05-09T20:23:34.829Z,64.30
2024-05-09T20:26:29.858Z,64.55
2024-05-09T20:29:22.741Z,64.87
2024-05-09T20:32:14.670Z,65.00
2024-05-09T20:35:08.207Z,65.06
2024-05-09T20:38:03.232Z,65.22
2024-05-09T20:40:56.361Z,65.44
2024-05-09T20:43:48.339Z,65.78
2024-05-09T20:46:41.184Z,65.80
2024-05-09T20:49:34.093Z,66.03
2024-05-09T20:52:27.056Z,65.97
2024-05-09T20:55:19.207Z,66.10
2024-05-09T20:58:11.712Z,66.16
2024-05-09T21:01:03.895Z,66.25
2024-05-09T21:03:56.061Z,66.31
2024-05-09T21:06:48.032Z,66.46
2024-05-09T21:09:40.512Z,66.56
2024-05-09T21:12:33.166Z,66.69
2024-05-09T21:15:25.608Z,66.76
2024-05-09T21:18:17.652Z,66.92
2024-05-09T21:21:09.846Z,67.17
2024-05-09T21:24:01.719Z,67.40
2024-05-09T21:26:53.685Z,67.54
2024-05-09T21:29:46.092Z,67.57
2024-05-09T21:32:38.268Z,67.77
2024-05-09T21:35:30.826Z,67.88
2024-05-09T21:38:22.909Z,67.93
2024-05-09T21:41:14.881Z,68.09
2024-05-09T21:44:07.741Z,68.11
2024-05-09T21:46:59.665Z,68.03
2024-05-09T21:49:51.814Z,68.11
2024-05-09T21:52:43.735Z,68.26
2024-05-09T21:55:35.788Z,68.26
2024-05-09T21:58:28.738Z,68.29
2024-05-09T22:01:20.799Z,68.19
2024-05-09T22:04:12.975Z,68.17
2024-05-09T22:07:06.661Z,68.46
2024-05-09T22:09:59.049Z,68.32
2024-05-09T22:12:53.972Z,68.41
2024-05-09T22:15:46.236Z,68.73
2024-05-09T22:18:38.654Z,68.75
2024-05-09T22:21:30.987Z,69.03
2024-05-09T22:24:23.267Z,69.06
2024-05-09T22:27:15.133Z,69.26
2024-05-09T22:30:11.864Z,69.44
2024-05-09T22:33:12.005Z,69.56
2024-05-09T22:36:04.110Z,69.78
2024-05-09T22:38:56.390Z,69.77
2024-05-09T22:41:48.659Z,69.99
2024-05-09T22:44:43.436Z,70.20
2024-05-09T22:47:36.364Z,70.32
2024-05-09T22:50:33.270Z,70.35
2024-05-09T22:53:26.747Z,70.41
2024-05-09T22:56:32.138Z,70.47
2024-05-09T22:59:24.007Z,70.46
2024-05-09T23:02:15.856Z,70.70
2024-05-09T23:05:08.638Z,70.52
2024-05-09T23:08:01.514Z,70.62
2024-05-09T23:10:53.791Z,70.90
2024-05-09T23:13:45.820Z,71.21
2024-05-09T23:16:38.790Z,71.41
2024-05-09T23:19:34.745Z,71.34
2024-05-09T23:22:29.735Z,71.38
2024-05-09T23:25:22.025Z,71.41
2024-05-09T23:28:14.171Z,71.48
2024-05-09T23:31:07.515Z,71.49
2024-05-09T23:33:59.973Z,71.52
2024-05-09T23:36:51.889Z,71.44
2024-05-09T23:39:44.014Z,71.53
2024-05-09T23:42:36.226Z,71.55
2024-05-09T23:45:28.311Z,71.48
2024-05-09T23:48:20.522Z,72.01
2024-05-09T23:51:12.658Z,72.08
2024-05-09T23:54:04.576Z,72.12
2024-05-09T23:56:56.759Z,72.29
2024-05-09T23:59:48.593Z,72.20
